• Join FlightAware (Why Join?)
  • Login
  • US Flag 
11:52PM EDT


 

Airport Tracker/Info


-or-


 

Live Flight TrackerFlight Track Log ✈ SWA3313 ✈ 29-Mar-2014 ✈ KALB - KMCO

Flight Track Log - Related Links

Times and Time Zones

All times are in EDT time to prevent confusion due to time zone crossing. See the SWA3313 flight status page for this flight to view local times or setup timezone preferences in your user account.

Time Position Orientation Groundspeed Altitude Reporting Facility
EDT Latitude Longitude Course Direction KTS MPH feet Rate Location/Type
02:50PM 42.7756 -73.8231 268° West 178 205 2,100  Level Boston Center
02:51PM 42.7733 -73.8936 268° West 212 244 3,900 2,760 Climbing Boston Center
02:52PM 42.7708 -73.9908 268° West 255 293 7,500 3,300 Climbing Boston Center
02:53PM 42.7394 -74.0822 245° Southwest 267 307 10,800 3,000 Climbing Boston Center
02:54PM 42.6589 -74.0847 181° South 332 382 13,600 3,000 Climbing Boston Center
02:55PM 42.5725 -74.0306 155° Southeast 342 394 17,000 2,640 Climbing Boston Center
02:56PM 42.4889 -73.9869 159° South 353 406 19,100 2,400 Climbing Boston Center
02:57PM 42.3936 -73.9344 158° South 367 422 21,900 3,000 Climbing Boston Center
02:58PM 42.2719 -73.8869 164° South 383 441 25,200 2,520 Climbing Boston Center
02:59PM 42.1731 -73.9211 194° South 376 433 27,100 1,380 Climbing Boston Center
03:00PM 42.0703 -73.9572 195° South 377 434 28,000 420 Climbing Boston Center
03:01PM 41.9656 -73.9939 195° South 385 443 28,000 540 Level Boston Center
03:02PM 41.8600 -74.0308 195° South 387 445 29,200 1,560 Climbing Boston Center
03:03PM 41.7386 -74.0739 195° South 405 466 31,200 2,040 Climbing Boston Center
03:04PM 41.6303 -74.1108 194° South 406 467 33,400 1,980 Climbing Boston Center
03:05PM 41.5250 -74.1475 195° South 397 457 35,200 1,500 Climbing Boston Center
03:06PM 41.4200 -74.1853 195° South 395 455 36,600 1,380 Climbing Boston Center
03:07PM 41.3367 -74.2775 220° Southwest 370 426 38,000 720 Climbing New York Center
03:08PM 41.2694 -74.3594 223° Southwest 370 426 38,000  Level New York Center
03:09PM 41.1981 -74.4439 222° Southwest 365 420 38,000  Level New York Center
03:10PM 41.1181 -74.5442 223° Southwest 360 414 38,000  Level New York Center
03:11PM 41.0486 -74.6283 222° Southwest 360 414 38,000  Level New York Center
03:12PM 40.9767 -74.7206 224° Southwest 354 407 38,000  Level New York Center
03:13PM 40.9050 -74.8097 223° Southwest 354 407 38,000  Level New York Center
03:14PM 40.8356 -74.8933 222° Southwest 354 407 38,000  Level New York Center
03:15PM 40.7636 -74.9822 223° Southwest 354 407 38,000  Level New York Center
03:16PM 40.6939 -75.0656 222° Southwest 354 407 38,000  Level New York Center
03:17PM 40.6219 -75.1539 223° Southwest 354 407 38,000  Level New York Center
03:18PM 40.5478 -75.2447 223° Southwest 354 407 38,000  Level New York Center
03:19PM 40.4775 -75.3331 224° Southwest 354 407 38,000  Level New York Center
03:20PM 40.4011 -75.4233 222° Southwest 354 407 38,000  Level New York Center
03:21PM 40.3311 -75.5083 223° Southwest 354 407 38,000  Level New York Center
03:22PM 40.2567 -75.5958 222° Southwest 354 407 38,000  Level New York Center
03:23PM 40.1839 -75.6886 224° Southwest 354 407 38,000  Level New York Center
03:25PM 40.0383 -75.8569 222° Southwest 356 410 38,000  Level Washington Center
03:26PM 39.9653 -75.9461 223° Southwest 361 415 38,000  Level Washington Center
03:27PM 39.8919 -76.0322 222° Southwest 361 415 38,000  Level Washington Center
03:28PM 39.8186 -76.1183 222° Southwest 361 415 38,000  Level Washington Center
03:29PM 39.7433 -76.2042 221° Southwest 361 415 38,000  Level Washington Center
03:30PM 39.6700 -76.2869 221° Southwest 356 410 38,000  Level Washington Center
03:31PM 39.6006 -76.3700 223° Southwest 350 403 38,000  Level Washington Center
03:32PM 39.5292 -76.4525 222° Southwest 350 403 38,000  Level Washington Center
03:33PM 39.4578 -76.5322 221° Southwest 350 403 38,000  Level Washington Center
03:34PM 39.3925 -76.6067 221° Southwest 350 403 38,000  Level Washington Center
03:35PM 39.3253 -76.6836 222° Southwest 343 395 38,000  Level Washington Center
03:36PM 39.2558 -76.7656 222° Southwest 343 395 38,000  Level Washington Center
03:37PM 39.1842 -76.8475 222° Southwest 343 395 38,000  Level Washington Center
03:38PM 39.1144 -76.9264 221° Southwest 343 395 38,000  Level Washington Center
03:39PM 39.0447 -77.0053 221° Southwest 338 389 38,000  Level Washington Center
03:40PM 38.9750 -77.0869 222° Southwest 343 395 38,000  Level Washington Center
03:41PM 38.9053 -77.1628 220° Southwest 343 395 38,000  Level Washington Center
03:42PM 38.8333 -77.2439 221° Southwest 343 395 38,000  Level Washington Center
03:43PM 38.7633 -77.3222 221° Southwest 343 395 38,000  Level Washington Center
03:44PM 38.6933 -77.4003 221° Southwest 343 395 38,000  Level Washington Center
03:45PM 38.6256 -77.4783 222° Southwest 343 395 38,000  Level Washington Center
03:46PM 38.5533 -77.5564 220° Southwest 343 395 38,000  Level Washington Center
03:47PM 38.4853 -77.6339 222° Southwest 343 395 38,000  Level Washington Center
03:48PM 38.4153 -77.7117 221° Southwest 343 395 38,000  Level Washington Center
03:49PM 38.3450 -77.7889 221° Southwest 343 395 38,000  Level Washington Center
03:50PM 38.2706 -77.8714 221° Southwest 343 395 38,000  Level Washington Center
03:51PM 38.2003 -77.9486 221° Southwest 343 395 38,000  Level Washington Center
03:52PM 38.1297 -78.0281 222° Southwest 343 395 38,000  Level Washington Center
03:53PM 38.0572 -78.1050 220° Southwest 343 395 38,000  Level Washington Center
03:54PM 37.9847 -78.1817 220° Southwest 343 395 38,000  Level Washington Center
03:55PM 37.9208 -78.2453 218° Southwest 338 389 38,000  Level Washington Center
03:56PM 37.8419 -78.3186 216° Southwest 344 396 38,000  Level Washington Center
03:57PM 37.7653 -78.3922 217° Southwest 349 402 38,000  Level Washington Center
03:58PM 37.6883 -78.4653 217° Southwest 349 402 38,000  Level Washington Center
03:59PM 37.6008 -78.5458 216° Southwest 349 402 38,000  Level Washington Center
04:00PM 37.5217 -78.6242 218° Southwest 349 402 38,000  Level Washington Center
04:01PM 37.4428 -78.6942 215° Southwest 349 402 38,000  Level Washington Center
04:02PM 37.3594 -78.7717 216° Southwest 355 409 38,000  Level Washington Center
04:03PM 37.2758 -78.8492 216° Southwest 367 422 38,000  Level Washington Center
04:04PM 37.1967 -78.9242 217° Southwest 382 440 38,000  Level Washington Center
04:05PM 37.1111 -79.0036 217° Southwest 382 440 38,000  Level Washington Center
04:06PM 37.0253 -79.0806 216° Southwest 387 445 38,000  Level Washington Center
04:07PM 36.9417 -79.1600 217° Southwest 387 445 38,000  Level Washington Center
04:08PM 36.8558 -79.2389 216° Southwest 387 445 38,000  Level Washington Center
04:09PM 36.7614 -79.3253 216° Southwest 387 445 38,000  Level Washington Center
04:10PM 36.6775 -79.4042 217° Southwest 387 445 38,000  Level Washington Center
04:11PM 36.5917 -79.4800 215° Southwest 387 445 38,000  Level Washington Center
04:14PM 36.3447 -79.7031 216° Southwest 384 442 38,000  Level Atlanta Center
04:15PM 36.2658 -79.7769 217° Southwest 372 428 38,000  Level Atlanta Center
04:16PM 36.1808 -79.8508 215° Southwest 360 414 38,000  Level Atlanta Center
04:17PM 36.0878 -79.9353 216° Southwest 366 421 38,000  Level Atlanta Center
04:18PM 35.9958 -79.9992 209° Southwest 366 421 38,000  Level Atlanta Center
04:19PM 35.9017 -80.0472 202° Southwest 372 428 38,000  Level Atlanta Center
04:20PM 35.8050 -80.0956 202° Southwest 377 434 38,000  Level Atlanta Center
04:21PM 35.7189 -80.1406 203° Southwest 362 417 38,000  Level Atlanta Center
04:22PM 35.6075 -80.1817 197° South 362 417 38,000  Level Atlanta Center
04:23PM 35.5083 -80.2119 194° South 362 417 38,000  Level Atlanta Center
04:24PM 35.4092 -80.2419 194° South 362 417 38,000  Level Atlanta Center
04:28PM 35.0561 -80.3517 194° South 370 426 38,000  Level Jacksonville Center
04:29PM 34.9650 -80.3772 193° South 375 432 38,000  Level Jacksonville Center
04:30PM 34.8675 -80.4081 195° South 375 432 38,000  Level Jacksonville Center
04:31PM 34.7764 -80.4383 195° South 369 425 38,000  Level Jacksonville Center
04:32PM 34.6767 -80.4639 192° South 359 413 38,000  Level Jacksonville Center
04:33PM 34.5792 -80.4944 194° South 359 413 38,000  Level Jacksonville Center
04:34PM 34.4839 -80.5222 194° South 359 413 38,000  Level Jacksonville Center
04:35PM 34.3886 -80.5525 195° South 359 413 38,000  Level Jacksonville Center
04:36PM 34.2953 -80.5828 195° South 359 413 38,000  Level Jacksonville Center
04:37PM 34.2039 -80.6078 193° South 354 407 38,000  Level Jacksonville Center
04:38PM 34.1106 -80.6353 194° South 354 407 38,000  Level Jacksonville Center
04:39PM 34.0211 -80.6625 194° South 348 400 38,000  Level Jacksonville Center
04:40PM 33.9319 -80.6875 193° South 343 395 38,000  Level Jacksonville Center
04:41PM 33.8364 -80.7147 193° South 343 395 38,000  Level Jacksonville Center
04:42PM 33.7450 -80.7419 194° South 343 395 38,000  Level Jacksonville Center
04:43PM 33.6517 -80.7692 194° South 343 395 38,000  Level Jacksonville Center
04:44PM 33.5603 -80.7964 194° South 343 395 38,000  Level Jacksonville Center
04:45PM 33.4667 -80.8236 194° South 343 395 38,000  Level Jacksonville Center
04:46PM 33.3714 -80.8531 194° South 343 395 38,000  Level Jacksonville Center
04:47PM 33.2756 -80.8800 193° South 348 400 38,000  Level Jacksonville Center
04:48PM 33.1822 -80.9069 194° South 348 400 38,000  Level Jacksonville Center
04:49PM 33.0886 -80.9314 192° South 354 407 38,000  Level Jacksonville Center
04:50PM 32.9931 -80.9608 194° South 354 407 38,000  Level Jacksonville Center
04:51PM 32.8994 -80.9875 193° South 354 407 38,000  Level Jacksonville Center
04:52PM 32.8019 -81.0142 193° South 354 407 38,000  Level Jacksonville Center
04:53PM 32.7125 -81.0383 193° South 359 413 38,000  Level Jacksonville Center
04:54PM 32.6086 -81.0725 195° South 354 407 38,000  Level Jacksonville Center
04:55PM 32.5006 -81.1019 193° South 360 414 38,000  Level Jacksonville Center
04:56PM 32.3964 -81.1283 192° South 375 432 38,000  Level Jacksonville Center
04:57PM 32.2944 -81.1600 195° South 375 432 38,000  Level Jacksonville Center
04:58PM 32.1947 -81.1864 193° South 375 432 38,000  Level Jacksonville Center
04:59PM 32.0906 -81.1981 185° South 375 432 38,000  Level Jacksonville Center
05:00PM 31.9839 -81.1953 179° South 381 438 38,000  Level Jacksonville Center
05:01PM 31.8753 -81.1922 179° South 386 444 38,000  Level Jacksonville Center
05:02PM 31.7689 -81.1894 179° South 386 444 38,000  Level Jacksonville Center
05:03PM 31.6747 -81.1861 178° South 381 438 38,000  Level Jacksonville Center
05:04PM 31.5578 -81.1833 179° South 386 444 38,000  Level Jacksonville Center
05:05PM 31.4533 -81.1781 178° South 386 444 38,000 -360 Level Jacksonville Center
05:06PM 31.3447 -81.1775 180° South 386 444 37,300 -840 Descending Jacksonville Center
05:07PM 31.2319 -81.1747 179° South 396 456 36,400 -960 Descending Jacksonville Center
05:08PM 31.1150 -81.1722 179° South 409 471 35,400 -960 Descending Jacksonville Center
05:09PM 30.9981 -81.1644 177° South 422 486 34,500 -720 Descending Jacksonville Center
05:10PM 30.8792 -81.1619 179° South 422 486 34,000 -300 Descending Jacksonville Center
05:11PM 30.7619 -81.1592 179° South 422 486 34,000 -300 Level Jacksonville Center
05:12PM 30.6450 -81.1542 178° South 422 486 33,500 -780 Descending Jacksonville Center
05:13PM 30.5281 -81.1514 179° South 422 486 32,500 -1,020 Descending Jacksonville Center
05:14PM 30.4111 -81.1464 178° South 422 486 31,500 -1,020 Descending Jacksonville Center
05:15PM 30.2900 -81.1436 179° South 422 486 30,500 -900 Descending Jacksonville Center
05:16PM 30.1689 -81.1411 179° South 427 491 29,800 -900 Descending Jacksonville Center
05:17PM 30.0478 -81.1386 179° South 432 497 28,800 -1,140 Descending Jacksonville Center
05:18PM 29.9328 -81.1358 179° South 432 497 27,600 -1,140 Descending Jacksonville Center
05:19PM 29.8242 -81.1306 178° South 416 479 26,600 -1,260 Descending Jacksonville Center
05:20PM 29.7158 -81.1300 180° South 400 460 25,100 -1,800 Descending Jacksonville Center
05:21PM 29.6133 -81.1272 179° South 381 438 23,100 -1,860 Descending Jacksonville Center
05:22PM 29.5214 -81.1242 178° South 376 433 21,400 -2,100 Descending Jacksonville Center
05:23PM 29.4044 -81.1142 176° South 381 438 19,000 -2,340 Descending Jacksonville Center
05:24PM 29.3000 -81.1139 180° South 382 440 16,800 -2,160 Descending Jacksonville Center
05:25PM 29.2039 -81.1011 173° South 365 420 14,700 -2,100 Descending Jacksonville Center
05:26PM 29.1036 -81.0958 177° South 367 422 12,700 -1,500 Descending Jacksonville Center
05:27PM 29.0097 -81.0881 176° South 340 391 11,800 -1,080 Descending Jacksonville Center
05:28PM 28.9236 -81.0683 169° South 321 369 10,600 -1,140 Descending Jacksonville Center
05:28PM 28.8667 -81.0500 164° South 296 341 10,000 -1,380 Descending Orlando TRACON
05:29PM 28.8000 -81.0500 180° South 288 331 8,500 -1,200 Descending Orlando TRACON
05:30PM 28.7500 -81.1000 221° Southwest 227 261 7,700 -900 Descending Orlando TRACON
05:31PM 28.7500 -81.1667 270° West 201 231 6,700 -1,140 Descending Orlando TRACON
05:32PM 28.7333 -81.2167 249° West 180 207 5,500 -1,200 Descending Orlando TRACON
05:33PM 28.7000 -81.2500 221° Southwest 186 214 4,400 -1,140 Descending Orlando TRACON
05:34PM 28.6667 -81.2833 221° Southwest 165 190 3,300 -720 Descending Orlando TRACON
05:35PM 28.6333 -81.2833 180° South 161 185 3,000 -300 Descending Orlando TRACON
05:36PM 28.5833 -81.2833 180° South 143 165 2,800 -480 Descending Orlando TRACON
05:37PM 28.5500 -81.2833 180° South 148 170 2,100 -780 Descending Orlando TRACON
05:38PM 28.5000 -81.2833 180° South 125 144 1,300 -720 Descending Orlando TRACON
05:39PM 28.4833 -81.2833 180° South 116 133 700 -600 Descending Orlando TRACON
05:41PM 28.4294 -81.3090 185° South  Level Estimated
05:48PM 28.4294 -81.3090 North  Level Estimated
05:49PM 28.4294 -81.3090 185° South  Level Estimated
05:50PM 28.4294 -81.3090 North  Level Estimated
05:51PM 28.4294 -81.3090 185° South  Level Estimated